Time;durP1;ratioP1;P1;durP2;ratioP2;P2;SDS_P1;SDS_P2;PMS_P1;PMS_P2;Temp;Humidity;BMP_temperature;BMP_pressure;BME280_temperature;BME280_humidity;BME280_pressure;Samples;Min_cycle;Max_cycle;Signal;HPM_P1;HPM_P2
2022/05/26 00:00:50;;;;;;;1.58;0.73;;;;;;;;;;4990273;28;20034;-76
2022/05/26 00:03:16;;;;;;;1.90;0.80;;;;;;;;;;4991424;28;20109;-75
2022/05/26 00:05:41;;;;;;;0.68;0.60;;;;;;;;;;4991776;28;20078;-77
2022/05/26 00:08:07;;;;;;;2.05;0.88;;;;;;;;;;4991150;28;20045;-75
2022/05/26 00:10:34;;;;;;;0.60;0.60;;;;;;;;;;4984925;28;20031;-76
2022/05/26 00:13:00;;;;;;;1.38;0.60;;;;;;;;;;4987118;28;20031;-76
2022/05/26 00:15:25;;;;;;;1.85;0.63;;;;;;;;;;4991526;28;20027;-78
2022/05/26 00:17:50;;;;;;;1.65;0.70;;;;;;;;;;4989964;28;20030;-75
2022/05/26 00:20:16;;;;;;;1.60;0.63;;;;;;;;;;4990923;28;20029;-76
2022/05/26 00:22:41;;;;;;;1.38;0.70;;;;;;;;;;4990812;28;20034;-74
2022/05/26 00:25:06;;;;;;;1.77;0.65;;;;;;;;;;4989958;28;20033;-75
2022/05/26 00:27:32;;;;;;;1.85;0.80;;;;;;;;;;4989510;28;20033;-75
2022/05/26 00:29:57;;;;;;;1.70;1.08;;;;;;;;;;4989279;28;20027;-75
2022/05/26 00:32:22;;;;;;;2.90;0.77;;;;;;;;;;4990917;28;20032;-73
2022/05/26 00:34:48;;;;;;;1.10;0.60;;;;;;;;;;4989974;28;20776;-76
2022/05/26 00:37:13;;;;;;;2.38;0.70;;;;;;;;;;4980993;28;20069;-75
2022/05/26 00:39:39;;;;;;;0.68;0.68;;;;;;;;;;4991332;28;20241;-75
2022/05/26 00:42:06;;;;;;;1.88;0.75;;;;;;;;;;4989837;28;20377;-77
2022/05/26 00:44:33;;;;;;;1.77;0.70;;;;;;;;;;4988603;28;20038;-76
2022/05/26 00:47:06;;;;;;;1.10;0.60;;;;;;;;;;4990708;28;20026;-76
2022/05/26 00:49:42;;;;;;;0.88;0.60;;;;;;;;;;4991050;28;20026;-76
2022/05/26 00:52:17;;;;;;;1.40;0.70;;;;;;;;;;4990619;28;20092;-76
2022/05/26 00:54:45;;;;;;;1.55;0.65;;;;;;;;;;4990792;28;20022;-75
2022/05/26 00:57:16;;;;;;;0.65;0.60;;;;;;;;;;4989888;28;20069;-76
2022/05/26 01:00:01;;;;;;;1.65;0.80;;;;;;;;;;4989385;28;20118;-76
2022/05/26 01:02:34;;;;;;;1.58;0.68;;;;;;;;;;4983953;28;20034;-72
2022/05/26 01:05:05;;;;;;;1.50;0.73;;;;;;;;;;4990558;28;20030;-73
2022/05/26 01:07:35;;;;;;;0.55;0.52;;;;;;;;;;4989574;28;20488;-75
2022/05/26 01:10:02;;;;;;;3.00;0.68;;;;;;;;;;4990323;28;20080;-74
2022/05/26 01:12:27;;;;;;;1.33;0.70;;;;;;;;;;4989886;28;20233;-77
2022/05/26 01:15:03;;;;;;;1.95;0.70;;;;;;;;;;4989995;28;20504;-74
2022/05/26 01:17:49;;;;;;;1.17;0.80;;;;;;;;;;4988716;28;20064;-76
2022/05/26 01:20:27;;;;;;;1.70;0.63;;;;;;;;;;4989691;28;20022;-75
2022/05/26 01:23:21;;;;;;;1.25;0.60;;;;;;;;;;4989774;28;20400;-76
2022/05/26 01:26:03;;;;;;;1.55;0.60;;;;;;;;;;4989540;28;20538;-75
2022/05/26 01:29:14;;;;;;;1.55;0.60;;;;;;;;;;4983539;28;20244;-74
2022/05/26 01:32:00;;;;;;;1.45;0.50;;;;;;;;;;4980983;28;20118;-76
2022/05/26 01:34:46;;;;;;;0.90;0.40;;;;;;;;;;5008102;28;20015;-75
2022/05/26 01:37:35;;;;;;;2.58;0.70;;;;;;;;;;4999830;28;20036;-74
2022/05/26 01:40:16;;;;;;;1.40;0.70;;;;;;;;;;4988297;28;20072;-74
2022/05/26 01:43:25;;;;;;;1.83;0.70;;;;;;;;;;4989608;28;20034;-75
2022/05/26 01:46:04;;;;;;;1.23;0.63;;;;;;;;;;4981553;28;20038;-75
2022/05/26 01:48:41;;;;;;;0.57;0.57;;;;;;;;;;4987683;28;20087;-76
2022/05/26 01:51:32;;;;;;;2.13;0.70;;;;;;;;;;4989840;28;20080;-76
2022/05/26 01:54:13;;;;;;;1.30;0.70;;;;;;;;;;4989393;28;20030;-75
2022/05/26 01:56:57;;;;;;;2.15;0.80;;;;;;;;;;4989555;28;20061;-77
2022/05/26 01:59:27;;;;;;;1.65;0.65;;;;;;;;;;4989159;28;20022;-75
2022/05/26 02:01:56;;;;;;;1.52;0.75;;;;;;;;;;4987266;28;21510;-75
2022/05/26 02:04:32;;;;;;;1.67;0.80;;;;;;;;;;4984048;28;20105;-76
2022/05/26 02:07:07;;;;;;;3.28;0.70;;;;;;;;;;4987189;28;20053;-74
2022/05/26 02:09:41;;;;;;;1.25;0.63;;;;;;;;;;4988362;28;20451;-75
2022/05/26 02:12:16;;;;;;;3.13;0.60;;;;;;;;;;4989264;28;20233;-75
2022/05/26 02:14:46;;;;;;;2.67;0.60;;;;;;;;;;4987787;28;20574;-76
2022/05/26 02:17:28;;;;;;;0.93;0.70;;;;;;;;;;4988963;28;20392;-75
2022/05/26 02:19:59;;;;;;;0.60;0.50;;;;;;;;;;4979231;28;20059;-76
2022/05/26 02:23:01;;;;;;;3.53;0.95;;;;;;;;;;4989015;28;20531;-75
2022/05/26 02:25:28;;;;;;;1.25;0.60;;;;;;;;;;4966494;28;20070;-76
2022/05/26 02:27:55;;;;;;;1.70;0.80;;;;;;;;;;4987605;28;20077;-74
2022/05/26 02:30:27;;;;;;;2.60;0.70;;;;;;;;;;4988698;28;20034;-76
2022/05/26 02:32:54;;;;;;;0.70;0.60;;;;;;;;;;4988673;28;20034;-76
2022/05/26 02:35:24;;;;;;;2.17;0.70;;;;;;;;;;5021002;23;20034;-75
2022/05/26 02:37:53;;;;;;;2.45;0.63;;;;;;;;;;5007465;28;20026;-74
2022/05/26 02:40:19;;;;;;;2.30;0.80;;;;;;;;;;5008483;28;20041;-75
2022/05/26 02:42:49;;;;;;;1.85;0.77;;;;;;;;;;5007342;28;20392;-73
2022/05/26 02:45:25;;;;;;;1.88;0.80;;;;;;;;;;5008474;28;20057;-73
2022/05/26 02:48:04;;;;;;;2.00;0.70;;;;;;;;;;5008685;28;20036;-75
2022/05/26 02:50:38;;;;;;;1.52;0.80;;;;;;;;;;5007500;28;20022;-73
2022/05/26 02:53:17;;;;;;;1.35;0.73;;;;;;;;;;5005723;28;20038;-73
2022/05/26 02:55:49;;;;;;;2.15;0.75;;;;;;;;;;5005060;28;20042;-73
2022/05/26 02:58:40;;;;;;;1.73;0.68;;;;;;;;;;4977576;28;20077;-73
2022/05/26 03:01:17;;;;;;;2.42;0.60;;;;;;;;;;4969161;28;20036;-73
2022/05/26 03:03:48;;;;;;;1.13;0.70;;;;;;;;;;4969998;28;20562;-74
2022/05/26 03:06:15;;;;;;;1.13;0.80;;;;;;;;;;4970479;28;20023;-73
2022/05/26 03:08:43;;;;;;;0.98;0.60;;;;;;;;;;4983874;28;20124;-74
2022/05/26 03:11:11;;;;;;;1.48;0.70;;;;;;;;;;5010582;28;20431;-73
2022/05/26 03:13:38;;;;;;;2.40;0.80;;;;;;;;;;5003197;28;20048;-73
2022/05/26 03:16:05;;;;;;;1.20;0.50;;;;;;;;;;5008580;28;20032;-74
2022/05/26 03:18:31;;;;;;;2.20;0.73;;;;;;;;;;5008105;28;20088;-74
2022/05/26 03:21:00;;;;;;;1.60;0.75;;;;;;;;;;5011059;28;20482;-73
2022/05/26 03:23:26;;;;;;;1.77;0.70;;;;;;;;;;5008432;28;20526;-73
2022/05/26 03:25:54;;;;;;;0.95;0.60;;;;;;;;;;4979348;28;20505;-72
2022/05/26 03:28:20;;;;;;;2.78;0.90;;;;;;;;;;4996566;28;20022;-73
2022/05/26 03:30:45;;;;;;;3.22;1.17;;;;;;;;;;5011968;28;20534;-75
2022/05/26 03:33:10;;;;;;;2.70;0.80;;;;;;;;;;5011991;28;20041;-74
2022/05/26 03:41:04;;;;;;;1.20;0.82;;;;;;;;;;4997944;28;20041;-74
2022/05/26 03:43:37;;;;;;;1.02;0.60;;;;;;;;;;4991666;28;20399;-72
2022/05/26 03:46:03;;;;;;;1.95;0.90;;;;;;;;;;5011906;28;20022;-73
2022/05/26 03:48:29;;;;;;;1.67;0.85;;;;;;;;;;5006019;28;20030;-72
2022/05/26 03:50:54;;;;;;;2.08;0.90;;;;;;;;;;5011906;28;20392;-74
2022/05/26 03:53:20;;;;;;;1.55;0.80;;;;;;;;;;5011396;28;20034;-74
2022/05/26 03:55:45;;;;;;;1.73;0.80;;;;;;;;;;5011395;28;20042;-72
2022/05/26 03:58:10;;;;;;;1.70;0.80;;;;;;;;;;5003978;28;20641;-75
2022/05/26 04:00:36;;;;;;;2.80;0.77;;;;;;;;;;5011807;28;20529;-74
2022/05/26 04:03:02;;;;;;;2.65;0.73;;;;;;;;;;5011430;28;20129;-74
2022/05/26 04:05:27;;;;;;;1.77;0.98;;;;;;;;;;5011023;28;20129;-72
2022/05/26 04:07:53;;;;;;;1.10;0.68;;;;;;;;;;5010980;28;20028;-75
2022/05/26 04:10:19;;;;;;;2.53;1.08;;;;;;;;;;5011070;28;20061;-72
2022/05/26 04:12:45;;;;;;;1.27;0.60;;;;;;;;;;5007357;28;20036;-76
2022/05/26 04:15:12;;;;;;;2.88;0.70;;;;;;;;;;5010687;28;20029;-74
2022/05/26 04:17:38;;;;;;;2.50;0.70;;;;;;;;;;5010904;28;20206;-73
2022/05/26 04:20:06;;;;;;;1.75;0.60;;;;;;;;;;5011033;28;20036;-73
2022/05/26 04:22:31;;;;;;;1.23;0.60;;;;;;;;;;4995946;28;20065;-76
2022/05/26 04:24:58;;;;;;;1.58;0.80;;;;;;;;;;5005961;28;20064;-74
2022/05/26 04:27:32;;;;;;;1.42;0.70;;;;;;;;;;5011761;28;20104;-75
2022/05/26 04:29:58;;;;;;;2.50;0.63;;;;;;;;;;5011700;28;20109;-73
2022/05/26 04:32:25;;;;;;;0.60;0.50;;;;;;;;;;5011461;28;20140;-75
2022/05/26 04:34:51;;;;;;;1.60;0.70;;;;;;;;;;5010356;28;20028;-75
2022/05/26 04:37:18;;;;;;;0.68;0.60;;;;;;;;;;5011613;28;20052;-72
2022/05/26 04:39:43;;;;;;;0.55;0.50;;;;;;;;;;5009143;28;20030;-74
2022/05/26 04:42:09;;;;;;;3.42;0.63;;;;;;;;;;5010656;28;20580;-73
2022/05/26 04:44:37;;;;;;;0.95;0.40;;;;;;;;;;5010995;28;20038;-74
2022/05/26 04:47:03;;;;;;;1.48;0.65;;;;;;;;;;4990205;28;20061;-74
2022/05/26 04:49:29;;;;;;;1.48;0.38;;;;;;;;;;4984178;28;20026;-74
2022/05/26 04:51:54;;;;;;;0.60;0.40;;;;;;;;;;4990687;28;20408;-75
2022/05/26 04:54:20;;;;;;;0.50;0.50;;;;;;;;;;4981811;28;20566;-74
2022/05/26 04:56:46;;;;;;;0.55;0.55;;;;;;;;;;4994370;28;20046;-75
2022/05/26 04:59:11;;;;;;;0.73;0.50;;;;;;;;;;4994231;28;20422;-74
2022/05/26 05:01:37;;;;;;;0.60;0.60;;;;;;;;;;5010248;28;20696;-74
2022/05/26 05:04:03;;;;;;;0.82;0.60;;;;;;;;;;5011643;28;20034;-74
2022/05/26 05:06:29;;;;;;;0.77;0.70;;;;;;;;;;5011343;28;20021;-73
2022/05/26 05:08:54;;;;;;;0.82;0.60;;;;;;;;;;5011341;28;20155;-75
2022/05/26 05:11:20;;;;;;;1.25;0.63;;;;;;;;;;5012644;28;20033;-72
2022/05/26 05:13:45;;;;;;;1.92;0.70;;;;;;;;;;4992897;28;20037;-74
2022/05/26 05:16:19;;;;;;;1.08;0.80;;;;;;;;;;5010920;28;20559;-73
2022/05/26 05:18:45;;;;;;;2.25;0.70;;;;;;;;;;4983575;28;20038;-73
2022/05/26 05:21:15;;;;;;;2.25;0.80;;;;;;;;;;4983747;28;20040;-74
2022/05/26 05:23:46;;;;;;;3.40;0.77;;;;;;;;;;4988795;28;20120;-72
2022/05/26 05:26:15;;;;;;;1.02;0.60;;;;;;;;;;4990902;28;20389;-74
2022/05/26 05:28:46;;;;;;;2.33;0.77;;;;;;;;;;4987860;28;20030;-73
2022/05/26 05:31:17;;;;;;;1.58;0.70;;;;;;;;;;5009021;28;20037;-73
2022/05/26 05:33:47;;;;;;;1.15;0.60;;;;;;;;;;5005416;28;20110;-75
2022/05/26 05:36:20;;;;;;;3.17;0.70;;;;;;;;;;5005566;28;20148;-73
2022/05/26 05:38:46;;;;;;;0.90;0.50;;;;;;;;;;4995572;28;20519;-73
2022/05/26 05:41:12;;;;;;;3.08;0.50;;;;;;;;;;4984133;28;20043;-74
2022/05/26 05:43:38;;;;;;;1.48;0.70;;;;;;;;;;5009493;28;20451;-75
2022/05/26 05:46:06;;;;;;;1.60;0.70;;;;;;;;;;4976610;28;20045;-71
2022/05/26 05:48:31;;;;;;;1.10;0.50;;;;;;;;;;4970465;28;20258;-74
2022/05/26 05:50:57;;;;;;;0.43;0.40;;;;;;;;;;4978366;28;20061;-75
2022/05/26 05:53:22;;;;;;;3.90;0.88;;;;;;;;;;5009603;28;20096;-74
2022/05/26 05:55:47;;;;;;;2.38;0.70;;;;;;;;;;5009338;28;20026;-73
2022/05/26 05:58:13;;;;;;;1.55;0.80;;;;;;;;;;5009650;28;20491;-75
2022/05/26 06:00:40;;;;;;;1.00;0.60;;;;;;;;;;5010808;28;20357;-74
2022/05/26 06:03:06;;;;;;;1.27;0.50;;;;;;;;;;4980630;28;20027;-74
2022/05/26 06:05:32;;;;;;;1.30;0.57;;;;;;;;;;4984698;28;20038;-73
2022/05/26 06:07:58;;;;;;;1.17;0.50;;;;;;;;;;4996718;28;20330;-73
2022/05/26 06:10:23;;;;;;;0.70;0.40;;;;;;;;;;4977443;28;20029;-73
2022/05/26 06:12:49;;;;;;;1.67;0.52;;;;;;;;;;4973236;28;20053;-74
2022/05/26 06:15:14;;;;;;;1.60;0.77;;;;;;;;;;5008677;28;20487;-75
2022/05/26 06:17:40;;;;;;;2.65;1.30;;;;;;;;;;5009068;28;20057;-74
2022/05/26 06:20:06;;;;;;;2.20;0.70;;;;;;;;;;5009623;28;20041;-74
2022/05/26 06:22:35;;;;;;;3.78;1.20;;;;;;;;;;5009432;28;20415;-74
2022/05/26 06:25:02;;;;;;;4.38;1.88;;;;;;;;;;5010198;28;20460;-75
2022/05/26 06:30:14;;;;;;;2.15;0.80;;;;;;;;;;5000293;28;20398;-72
2022/05/26 06:38:16;;;;;;;2.60;0.43;;;;;;;;;;4981663;28;20160;-73
2022/05/26 06:40:43;;;;;;;1.33;0.57;;;;;;;;;;4986065;28;20053;-74
2022/05/26 06:43:08;;;;;;;0.68;0.60;;;;;;;;;;5003930;28;20476;-75
2022/05/26 06:45:35;;;;;;;0.73;0.68;;;;;;;;;;4982664;28;20069;-74
2022/05/26 06:48:01;;;;;;;2.55;0.80;;;;;;;;;;4986785;28;20030;-74
2022/05/26 06:50:26;;;;;;;1.40;0.50;;;;;;;;;;4986489;28;20664;-74
2022/05/26 06:52:51;;;;;;;1.10;0.60;;;;;;;;;;4969424;28;20496;-74
2022/05/26 06:55:17;;;;;;;1.08;0.88;;;;;;;;;;4974508;28;20036;-75
2022/05/26 06:57:42;;;;;;;2.03;1.17;;;;;;;;;;4992877;28;20034;-74
2022/05/26 07:00:09;;;;;;;1.13;0.70;;;;;;;;;;4992363;28;20030;-73
2022/05/26 07:02:34;;;;;;;2.40;0.80;;;;;;;;;;5011993;28;20026;-74
2022/05/26 07:05:01;;;;;;;1.38;0.90;;;;;;;;;;5007898;28;20080;-75
2022/05/26 07:07:27;;;;;;;2.28;1.00;;;;;;;;;;4983431;28;20056;-73
2022/05/26 07:09:54;;;;;;;2.47;0.70;;;;;;;;;;4979069;28;20542;-73
2022/05/26 07:12:20;;;;;;;1.88;0.70;;;;;;;;;;4971299;28;20034;-72
2022/05/26 07:14:45;;;;;;;1.98;0.85;;;;;;;;;;4986094;28;20041;-74
2022/05/26 07:17:11;;;;;;;1.80;1.10;;;;;;;;;;4983992;28;20515;-74
2022/05/26 07:19:37;;;;;;;1.73;0.82;;;;;;;;;;4986828;28;20034;-72
2022/05/26 07:22:03;;;;;;;1.73;1.00;;;;;;;;;;4992387;28;20640;-72
2022/05/26 07:24:28;;;;;;;1.63;0.80;;;;;;;;;;4992399;28;20043;-73
2022/05/26 07:26:54;;;;;;;1.05;0.80;;;;;;;;;;4991613;28;20046;-71
2022/05/26 07:29:19;;;;;;;1.08;0.60;;;;;;;;;;5000413;28;20488;-74
2022/05/26 07:31:45;;;;;;;2.47;0.73;;;;;;;;;;4984145;28;20026;-74
2022/05/26 07:34:11;;;;;;;1.63;0.80;;;;;;;;;;4982517;28;20058;-74
2022/05/26 07:42:12;;;;;;;1.48;0.65;;;;;;;;;;4974498;28;20064;-75
2022/05/26 07:44:41;;;;;;;2.58;0.80;;;;;;;;;;4973044;28;20030;-75
2022/05/26 07:47:08;;;;;;;3.13;0.80;;;;;;;;;;4976338;28;20089;-76
2022/05/26 07:49:41;;;;;;;1.63;0.85;;;;;;;;;;4988091;28;20042;-76
2022/05/26 07:52:06;;;;;;;;;;;;;;;;;;4981649;28;20099;-74
2022/05/26 07:54:32;;;;;;;0.98;0.70;;;;;;;;;;4981207;28;20330;-74
2022/05/26 07:56:57;;;;;;;1.75;0.80;;;;;;;;;;5008757;28;20022;-73
2022/05/26 07:59:23;;;;;;;1.15;0.60;;;;;;;;;;5011910;28;20022;-73
2022/05/26 08:01:49;;;;;;;1.30;0.80;;;;;;;;;;4998322;28;20030;-76
2022/05/26 08:04:15;;;;;;;1.33;0.80;;;;;;;;;;4997306;28;20026;-75
2022/05/26 08:06:45;;;;;;;2.03;0.98;;;;;;;;;;4971265;28;20023;-74
2022/05/26 08:09:11;;;;;;;1.27;0.88;;;;;;;;;;5000053;28;20057;-75
2022/05/26 08:11:36;;;;;;;1.17;1.00;;;;;;;;;;4978737;28;20558;-74
2022/05/26 08:14:02;;;;;;;1.65;1.02;;;;;;;;;;4991649;28;20487;-74
2022/05/26 08:16:27;;;;;;;1.90;0.85;;;;;;;;;;4991869;28;20026;-76
2022/05/26 08:18:52;;;;;;;2.63;1.35;;;;;;;;;;4993195;28;20022;-73
2022/05/26 08:21:18;;;;;;;2.58;1.08;;;;;;;;;;4991063;28;20033;-74
2022/05/26 08:23:44;;;;;;;1.95;0.95;;;;;;;;;;4993495;28;20041;-76
2022/05/26 08:26:10;;;;;;;1.92;1.00;;;;;;;;;;4997648;28;20134;-76
2022/05/26 08:28:35;;;;;;;1.70;1.00;;;;;;;;;;4996009;28;20023;-77
2022/05/26 08:31:01;;;;;;;2.58;1.50;;;;;;;;;;4986490;28;20041;-78
2022/05/26 08:33:28;;;;;;;2.40;1.10;;;;;;;;;;4990214;28;20030;-77
2022/05/26 08:36:05;;;;;;;1.50;0.93;;;;;;;;;;4988714;28;20059;-78
2022/05/26 08:38:31;;;;;;;2.65;1.10;;;;;;;;;;4985374;28;20525;-76
2022/05/26 08:40:57;;;;;;;1.58;0.80;;;;;;;;;;5011020;28;20061;-77
2022/05/26 08:43:29;;;;;;;3.83;1.23;;;;;;;;;;4983599;28;20113;-77
2022/05/26 08:45:55;;;;;;;2.47;1.10;;;;;;;;;;4974729;28;20034;-76
2022/05/26 08:48:54;;;;;;;3.30;1.45;;;;;;;;;;4982247;28;20089;-76
2022/05/26 08:51:41;;;;;;;2.35;1.30;;;;;;;;;;4986717;28;20097;-78
2022/05/26 08:54:15;;;;;;;4.90;2.17;;;;;;;;;;4990842;28;20035;-75
2022/05/26 08:56:42;;;;;;;1.52;0.90;;;;;;;;;;4984370;28;20038;-77
2022/05/26 08:59:13;;;;;;;2.03;1.17;;;;;;;;;;4985710;28;20423;-78
2022/05/26 09:01:39;;;;;;;2.10;0.97;;;;;;;;;;4989577;28;20496;-75
2022/05/26 09:04:04;;;;;;;6.22;4.80;;;;;;;;;;4999845;28;20128;-79
2022/05/26 09:12:55;;;;;;;2.45;1.40;;;;;;;;;;5013077;28;20029;-76
2022/05/26 09:14:50;;;;;;;2.00;1.10;;;;;;;;;;4992143;28;20506;-76
2022/05/26 09:17:16;;;;;;;2.28;1.10;;;;;;;;;;4993541;28;20046;-78
2022/05/26 09:19:44;;;;;;;1.92;1.05;;;;;;;;;;5012234;28;20021;-79
2022/05/26 09:22:26;;;;;;;2.35;1.10;;;;;;;;;;4996257;28;20381;-76
2022/05/26 09:24:52;;;;;;;2.53;0.90;;;;;;;;;;5006765;28;20045;-75
2022/05/26 09:27:27;;;;;;;5.43;1.58;;;;;;;;;;4984916;28;20026;-77
2022/05/26 09:29:53;;;;;;;3.63;0.98;;;;;;;;;;4994306;28;20090;-80
2022/05/26 09:32:22;;;;;;;3.40;1.17;;;;;;;;;;4993311;28;20017;-78
2022/05/26 09:35:12;;;;;;;2.08;1.00;;;;;;;;;;4999444;28;20428;-77
2022/05/26 09:37:41;;;;;;;3.47;1.10;;;;;;;;;;4981590;28;20026;-75
2022/05/26 09:40:24;;;;;;;3.83;0.98;;;;;;;;;;4982233;28;20049;-77
2022/05/26 09:42:56;;;;;;;3.53;1.35;;;;;;;;;;5000835;28;20261;-74
2022/05/26 09:45:21;;;;;;;2.90;1.13;;;;;;;;;;4984887;28;20309;-74
2022/05/26 09:47:54;;;;;;;1.52;0.90;;;;;;;;;;4974421;28;20041;-75
2022/05/26 09:50:37;;;;;;;1.25;0.88;;;;;;;;;;4981819;28;20038;-75
2022/05/26 09:53:09;;;;;;;3.22;1.10;;;;;;;;;;4982981;28;20034;-75
2022/05/26 09:55:48;;;;;;;2.63;1.38;;;;;;;;;;4987601;28;20034;-73
2022/05/26 09:58:37;;;;;;;6.05;1.40;;;;;;;;;;4998787;28;20031;-74
2022/05/26 10:01:21;;;;;;;3.30;1.20;;;;;;;;;;4976212;28;20100;-76
2022/05/26 10:03:52;;;;;;;2.25;1.30;;;;;;;;;;4973796;28;20037;-75
2022/05/26 10:06:20;;;;;;;4.72;1.33;;;;;;;;;;4996689;28;20041;-76
2022/05/26 10:09:20;;;;;;;3.53;1.30;;;;;;;;;;4995369;28;20480;-75
2022/05/26 10:12:05;;;;;;;1.73;0.85;;;;;;;;;;4981350;28;20062;-77
2022/05/26 10:15:02;;;;;;;2.70;1.30;;;;;;;;;;4977643;28;20034;-75
2022/05/26 10:17:59;;;;;;;4.30;2.45;;;;;;;;;;4981445;28;20109;-76
2022/05/26 10:20:55;;;;;;;1.70;1.10;;;;;;;;;;4980266;28;20053;-74
2022/05/26 10:24:04;;;;;;;3.72;1.02;;;;;;;;;;4992413;28;20484;-74
2022/05/26 10:26:34;;;;;;;3.10;1.75;;;;;;;;;;4936052;29;20044;-75
2022/05/26 10:29:21;;;;;;;4.05;1.23;;;;;;;;;;4936045;29;20038;-72
2022/05/26 10:32:17;;;;;;;2.88;0.88;;;;;;;;;;4963780;28;20050;-75
2022/05/26 10:35:07;;;;;;;3.33;0.90;;;;;;;;;;4995162;28;20036;-74
2022/05/26 10:38:11;;;;;;;2.50;1.00;;;;;;;;;;4980116;28;20556;-75
2022/05/26 10:40:36;;;;;;;2.47;0.80;;;;;;;;;;4973725;28;20038;-74
2022/05/26 10:43:18;;;;;;;2.40;1.10;;;;;;;;;;5006039;28;20084;-76
2022/05/26 10:45:48;;;;;;;;;;;;;;;;;;4978970;28;20034;-75
2022/05/26 10:48:50;;;;;;;2.25;1.05;;;;;;;;;;5005019;28;20395;-73
2022/05/26 10:51:25;;;;;;;2.30;1.05;;;;;;;;;;4989988;28;20472;-74
2022/05/26 10:54:06;;;;;;;2.10;0.90;;;;;;;;;;4989573;28;20030;-72
2022/05/26 10:56:47;;;;;;;2.03;0.90;;;;;;;;;;5001316;28;20049;-73
2022/05/26 10:59:36;;;;;;;2.35;0.95;;;;;;;;;;5008458;28;20026;-74
2022/05/26 11:02:11;;;;;;;3.25;1.00;;;;;;;;;;5008756;28;20041;-73
2022/05/26 11:04:44;;;;;;;1.70;0.98;;;;;;;;;;5008179;28;20033;-73
2022/05/26 11:07:22;;;;;;;4.15;1.13;;;;;;;;;;5008618;28;20056;-74
2022/05/26 11:09:52;;;;;;;4.55;1.30;;;;;;;;;;4999076;28;20038;-78
2022/05/26 11:12:28;;;;;;;3.80;1.23;;;;;;;;;;5008423;28;20502;-74
2022/05/26 11:18:26;;;;;;;4.00;1.23;;;;;;;;;;5008536;28;20040;-76
2022/05/26 11:20:54;;;;;;;2.28;0.82;;;;;;;;;;5008314;28;20030;-75
2022/05/26 11:23:21;;;;;;;3.47;1.30;;;;;;;;;;5000958;28;20028;-76
2022/05/26 11:25:57;;;;;;;5.07;1.25;;;;;;;;;;5008118;28;20486;-75
2022/05/26 11:28:39;;;;;;;1.15;0.82;;;;;;;;;;5006500;28;20034;-74
2022/05/26 11:36:52;;;;;;;3.05;1.30;;;;;;;;;;5005862;28;20040;-75
2022/05/26 11:39:33;;;;;;;1.90;1.05;;;;;;;;;;5007708;28;20022;-73
2022/05/26 11:42:02;;;;;;;3.22;1.20;;;;;;;;;;5010493;28;20041;-74
2022/05/26 11:44:37;;;;;;;2.60;1.30;;;;;;;;;;5011651;28;20416;-75
2022/05/26 11:47:39;;;;;;;2.97;1.25;;;;;;;;;;5010351;28;20068;-72
2022/05/26 11:50:26;;;;;;;3.15;1.00;;;;;;;;;;5011165;28;20115;-75
2022/05/26 11:52:51;;;;;;;2.70;1.30;;;;;;;;;;5006295;28;20088;-75
2022/05/26 11:55:21;;;;;;;3.13;1.17;;;;;;;;;;5011173;28;20256;-75
2022/05/26 11:57:53;;;;;;;2.50;1.20;;;;;;;;;;5011337;28;20283;-75
2022/05/26 12:00:38;;;;;;;2.42;1.23;;;;;;;;;;5011606;28;20076;-75
2022/05/26 12:03:22;;;;;;;2.97;1.63;;;;;;;;;;5002998;28;20040;-75
2022/05/26 12:06:09;;;;;;;3.05;1.10;;;;;;;;;;5011086;28;20030;-74
2022/05/26 12:08:39;;;;;;;2.47;1.15;;;;;;;;;;4998288;28;20410;-75
2022/05/26 12:11:09;;;;;;;4.20;1.60;;;;;;;;;;5003561;28;20075;-73
2022/05/26 12:13:37;;;;;;;3.60;1.67;;;;;;;;;;4998955;28;20577;-73
2022/05/26 12:16:25;;;;;;;2.22;1.23;;;;;;;;;;5011593;28;20152;-74
2022/05/26 12:19:04;;;;;;;2.25;1.10;;;;;;;;;;5010669;28;20495;-73
2022/05/26 12:21:29;;;;;;;2.35;0.95;;;;;;;;;;5009516;28;20061;-74
2022/05/26 12:23:56;;;;;;;2.67;1.20;;;;;;;;;;5010759;28;20056;-75
2022/05/26 12:26:28;;;;;;;3.97;1.20;;;;;;;;;;5002630;28;20053;-74
2022/05/26 12:28:54;;;;;;;3.30;1.40;;;;;;;;;;5009131;28;20480;-76
2022/05/26 12:31:21;;;;;;;3.85;1.25;;;;;;;;;;5010961;28;20034;-75
2022/05/26 12:34:02;;;;;;;3.42;1.30;;;;;;;;;;5010390;28;20040;-74
2022/05/26 12:36:51;;;;;;;3.63;1.35;;;;;;;;;;5009100;28;20286;-75
2022/05/26 12:39:25;;;;;;;3.20;1.17;;;;;;;;;;5007251;28;20079;-73
2022/05/26 12:42:16;;;;;;;3.30;1.30;;;;;;;;;;5002738;28;20108;-74
2022/05/26 12:45:20;;;;;;;6.40;1.40;;;;;;;;;;4971411;28;20485;-75
2022/05/26 12:48:00;;;;;;;5.78;1.50;;;;;;;;;;4971732;28;20023;-75
2022/05/26 12:50:26;;;;;;;4.28;1.45;;;;;;;;;;4971057;28;20030;-74
2022/05/26 12:53:07;;;;;;;4.15;1.15;;;;;;;;;;4970929;28;20029;-74
2022/05/26 12:55:44;;;;;;;4.00;1.48;;;;;;;;;;5003073;28;20075;-73
2022/05/26 12:58:18;;;;;;;2.90;1.20;;;;;;;;;;5009908;28;20053;-74
2022/05/26 13:00:46;;;;;;;3.38;1.20;;;;;;;;;;5010181;28;20026;-75
2022/05/26 13:03:20;;;;;;;3.65;1.40;;;;;;;;;;5008622;28;20376;-74
2022/05/26 13:06:09;;;;;;;3.22;1.60;;;;;;;;;;5009873;28;20442;-73
2022/05/26 13:08:45;;;;;;;3.00;1.30;;;;;;;;;;4993528;28;20038;-73
2022/05/26 13:11:14;;;;;;;2.65;1.40;;;;;;;;;;5009710;28;20021;-73
2022/05/26 13:13:51;;;;;;;4.40;1.70;;;;;;;;;;5009706;28;20029;-73
2022/05/26 13:16:37;;;;;;;3.55;1.70;;;;;;;;;;5010066;28;20026;-71
2022/05/26 13:19:15;;;;;;;4.50;1.83;;;;;;;;;;5009685;28;20036;-74
2022/05/26 13:21:43;;;;;;;2.60;1.10;;;;;;;;;;5001111;28;20037;-72
2022/05/26 13:24:29;;;;;;;2.60;1.20;;;;;;;;;;5006810;28;20041;-72
2022/05/26 13:27:10;;;;;;;2.38;1.20;;;;;;;;;;5009899;28;20105;-73
2022/05/26 13:29:40;;;;;;;4.88;1.55;;;;;;;;;;5009413;28;20057;-75
2022/05/26 13:34:55;;;;;;;3.15;1.38;;;;;;;;;;5009489;28;20060;-72
2022/05/26 13:37:28;;;;;;;4.18;1.30;;;;;;;;;;5007906;28;20053;-73
2022/05/26 13:40:12;;;;;;;2.15;1.73;;;;;;;;;;4993613;28;20374;-72
2022/05/26 13:42:43;;;;;;;3.33;1.67;;;;;;;;;;5002354;28;20219;-75
2022/05/26 13:45:17;;;;;;;3.05;1.20;;;;;;;;;;5003836;28;20045;-73
2022/05/26 13:47:42;;;;;;;3.70;1.38;;;;;;;;;;5009370;28;20029;-73
2022/05/26 13:50:09;;;;;;;2.55;1.23;;;;;;;;;;5009003;28;20464;-74
2022/05/26 13:52:36;;;;;;;3.55;1.60;;;;;;;;;;5009215;28;20057;-74
2022/05/26 13:55:16;;;;;;;4.60;1.55;;;;;;;;;;5009122;28;20562;-76
2022/05/26 13:57:51;;;;;;;4.07;1.40;;;;;;;;;;5006338;28;20091;-74
2022/05/26 14:00:35;;;;;;;1.90;1.35;;;;;;;;;;4986126;28;20025;-74
2022/05/26 14:03:10;;;;;;;4.15;1.20;;;;;;;;;;5005813;28;20488;-73
2022/05/26 14:05:55;;;;;;;2.00;1.58;;;;;;;;;;4997967;28;20026;-71
2022/05/26 14:08:20;;;;;;;2.58;1.30;;;;;;;;;;5008910;28;20026;-73
2022/05/26 14:10:50;;;;;;;2.72;1.70;;;;;;;;;;5009988;28;20036;-76
2022/05/26 14:13:17;;;;;;;2.65;1.35;;;;;;;;;;5008966;28;20516;-75
2022/05/26 14:15:52;;;;;;;3.08;1.20;;;;;;;;;;5008978;28;20116;-73
2022/05/26 14:19:05;;;;;;;4.00;1.33;;;;;;;;;;4999588;28;20023;-73
2022/05/26 14:21:33;;;;;;;1.77;1.23;;;;;;;;;;4994502;28;20041;-74
2022/05/26 14:24:17;;;;;;;3.95;1.40;;;;;;;;;;4997997;28;20069;-74
2022/05/26 14:26:58;;;;;;;2.47;1.10;;;;;;;;;;5006375;28;20036;-74
2022/05/26 14:29:23;;;;;;;2.08;1.15;;;;;;;;;;4969850;28;20065;-75
2022/05/26 14:32:02;;;;;;;2.55;1.35;;;;;;;;;;4969621;28;20018;-74
2022/05/26 14:34:34;;;;;;;3.88;1.35;;;;;;;;;;5037656;22;20045;-71
2022/05/26 14:37:00;;;;;;;3.30;1.40;;;;;;;;;;5011728;28;20025;-73
2022/05/26 14:39:26;;;;;;;2.92;1.20;;;;;;;;;;5008717;28;20402;-76
2022/05/26 14:41:54;;;;;;;2.47;1.30;;;;;;;;;;5008647;28;20028;-74
2022/05/26 14:44:19;;;;;;;2.67;0.95;;;;;;;;;;5013655;28;20053;-79
2022/05/26 14:46:45;;;;;;;1.80;1.30;;;;;;;;;;5026293;28;20068;-74
2022/05/26 14:49:10;;;;;;;2.05;1.20;;;;;;;;;;5027215;28;20342;-74
2022/05/26 14:51:36;;;;;;;2.67;1.35;;;;;;;;;;5027977;28;20030;-76
2022/05/26 14:56:47;;;;;;;3.97;1.45;;;;;;;;;;5028410;28;20212;-73
2022/05/26 14:59:14;;;;;;;3.60;1.33;;;;;;;;;;5028370;28;20026;-76
2022/05/26 15:01:39;;;;;;;3.33;1.30;;;;;;;;;;5027496;28;20041;-74
2022/05/26 15:04:04;;;;;;;4.47;1.33;;;;;;;;;;5028030;28;20029;-76
2022/05/26 15:06:38;;;;;;;3.75;1.30;;;;;;;;;;5027579;28;20021;-74
2022/05/26 15:09:08;;;;;;;4.35;1.40;;;;;;;;;;5028494;28;20116;-73
2022/05/26 15:11:33;;;;;;;3.00;1.23;;;;;;;;;;5028954;28;20083;-76
2022/05/26 15:13:58;;;;;;;2.80;1.15;;;;;;;;;;5028666;28;20431;-77
2022/05/26 15:16:24;;;;;;;2.00;1.20;;;;;;;;;;5028152;28;20044;-77
2022/05/26 15:18:50;;;;;;;2.45;1.33;;;;;;;;;;5030667;28;20394;-78
2022/05/26 15:21:15;;;;;;;4.85;1.40;;;;;;;;;;5030678;28;20029;-75
2022/05/26 15:23:41;;;;;;;3.75;1.33;;;;;;;;;;5032131;28;20087;-77
2022/05/26 15:26:11;;;;;;;2.88;1.83;;;;;;;;;;5030736;28;20017;-76
2022/05/26 15:28:48;;;;;;;2.08;1.30;;;;;;;;;;5028610;28;20409;-73
2022/05/26 15:31:14;;;;;;;2.88;1.15;;;;;;;;;;5030805;28;20109;-78
2022/05/26 15:33:39;;;;;;;4.03;1.27;;;;;;;;;;5031574;28;20116;-73
2022/05/26 15:36:07;;;;;;;3.00;1.40;;;;;;;;;;5031707;28;20433;-77
2022/05/26 15:38:39;;;;;;;2.30;1.15;;;;;;;;;;5030418;28;20057;-75
2022/05/26 15:41:05;;;;;;;2.63;1.40;;;;;;;;;;5031786;28;20250;-77
2022/05/26 15:43:31;;;;;;;3.78;1.42;;;;;;;;;;5027036;28;20038;-79
2022/05/26 15:45:59;;;;;;;5.20;1.67;;;;;;;;;;5032152;28;20037;-75
2022/05/26 15:48:25;;;;;;;2.80;1.20;;;;;;;;;;5032214;28;20038;-72
2022/05/26 15:50:50;;;;;;;5.68;1.35;;;;;;;;;;5032787;28;20159;-74